createdAt,value
2022-08-16T00:01:24.584Z,24.00
2022-08-16T00:03:53.146Z,24.00
2022-08-16T00:06:21.024Z,24.00
2022-08-16T00:08:48.404Z,24.00
2022-08-16T00:11:16.660Z,24.00
2022-08-16T00:13:53.507Z,24.00
2022-08-16T00:17:00.848Z,23.90
2022-08-16T00:19:18.949Z,23.90
2022-08-16T00:21:46.652Z,23.90
2022-08-16T00:24:32.683Z,24.00
2022-08-16T00:27:02.308Z,24.00
2022-08-16T00:29:30.046Z,23.90
2022-08-16T00:32:01.241Z,23.90
2022-08-16T00:34:44.249Z,23.90
2022-08-16T00:37:24.392Z,23.80
2022-08-16T00:39:57.473Z,23.70
2022-08-16T00:42:30.334Z,23.70
2022-08-16T00:45:09.246Z,23.60
2022-08-16T00:47:48.823Z,23.60
2022-08-16T00:50:19.408Z,23.70
2022-08-16T00:52:53.587Z,23.60
2022-08-16T00:55:24.096Z,23.70
2022-08-16T00:57:59.951Z,23.70
2022-08-16T01:00:30.389Z,23.70
2022-08-16T01:02:59.802Z,23.80
2022-08-16T01:05:27.536Z,23.80
2022-08-16T01:07:54.973Z,23.80
2022-08-16T01:10:32.549Z,23.90
2022-08-16T01:13:08.334Z,23.80
2022-08-16T01:15:44.036Z,23.80
2022-08-16T01:18:38.957Z,23.90
2022-08-16T01:21:22.366Z,23.80
2022-08-16T01:24:52.962Z,23.80
2022-08-16T01:27:05.491Z,23.80
2022-08-16T01:29:57.035Z,23.80
2022-08-16T01:32:33.307Z,23.80
2022-08-16T01:35:03.722Z,23.70
2022-08-16T01:37:53.193Z,23.70
2022-08-16T01:40:26.117Z,23.80
2022-08-16T01:42:55.366Z,23.70
2022-08-16T01:45:22.622Z,23.70
2022-08-16T01:47:52.117Z,23.70
2022-08-16T01:50:42.483Z,23.60
2022-08-16T01:53:10.146Z,23.60
2022-08-16T01:55:40.726Z,23.60
2022-08-16T01:58:07.742Z,23.60
2022-08-16T02:00:37.708Z,23.60
2022-08-16T02:03:04.790Z,23.50
2022-08-16T02:05:31.648Z,23.60
2022-08-16T02:08:02.765Z,23.60
2022-08-16T02:10:33.875Z,23.60
2022-08-16T02:13:01.171Z,23.60
2022-08-16T02:15:29.841Z,23.60
2022-08-16T02:17:58.638Z,23.60
2022-08-16T02:20:28.259Z,23.60
2022-08-16T02:23:01.663Z,23.60
2022-08-16T02:25:51.724Z,23.60
2022-08-16T02:28:19.862Z,23.50
2022-08-16T02:30:50.923Z,23.60
2022-08-16T02:33:20.478Z,23.60
2022-08-16T02:36:07.632Z,23.50
2022-08-16T02:38:41.235Z,23.40
2022-08-16T02:41:10.005Z,23.40
2022-08-16T02:43:39.211Z,23.40
2022-08-16T02:46:08.633Z,23.40
2022-08-16T02:48:38.525Z,23.40
2022-08-16T02:51:11.315Z,23.30
2022-08-16T02:53:43.335Z,23.20
2022-08-16T02:56:12.024Z,23.20
2022-08-16T02:58:42.351Z,23.20
2022-08-16T03:01:24.329Z,23.20
2022-08-16T03:04:28.864Z,23.30
2022-08-16T03:06:51.288Z,23.30
2022-08-16T03:09:24.249Z,23.30
2022-08-16T03:11:50.978Z,23.30
2022-08-16T03:14:21.216Z,23.30
2022-08-16T03:16:59.271Z,23.30
2022-08-16T03:19:47.116Z,23.30
2022-08-16T03:22:28.380Z,23.30
2022-08-16T03:25:01.574Z,23.30
2022-08-16T03:27:31.394Z,23.30
2022-08-16T03:30:30.152Z,23.20
2022-08-16T03:32:57.342Z,23.20
2022-08-16T03:35:32.561Z,23.10
2022-08-16T03:38:04.290Z,23.20
2022-08-16T03:40:51.819Z,23.20
2022-08-16T03:43:21.485Z,23.20
2022-08-16T03:45:52.699Z,23.30
2022-08-16T03:48:20.937Z,23.20
2022-08-16T03:51:05.563Z,23.20
2022-08-16T03:53:37.574Z,23.10
2022-08-16T03:56:07.608Z,23.10
2022-08-16T03:58:45.781Z,23.10
2022-08-16T04:01:15.396Z,23.00
2022-08-16T04:03:43.171Z,23.00
2022-08-16T04:06:11.172Z,22.90
2022-08-16T04:08:39.722Z,22.90
2022-08-16T04:11:06.889Z,22.90
2022-08-16T04:14:01.590Z,22.80
2022-08-16T04:16:26.322Z,22.80
2022-08-16T04:19:01.220Z,22.90
2022-08-16T04:21:34.505Z,22.90
2022-08-16T04:24:02.975Z,22.80
2022-08-16T04:26:32.147Z,22.80
2022-08-16T04:29:16.414Z,22.80
2022-08-16T04:31:55.764Z,22.80
2022-08-16T04:34:26.579Z,22.70
2022-08-16T04:36:54.316Z,22.80
2022-08-16T04:39:23.845Z,22.80
2022-08-16T04:41:56.846Z,22.70
2022-08-16T04:44:32.481Z,22.70
2022-08-16T04:47:21.722Z,22.80
2022-08-16T04:49:52.662Z,22.60
2022-08-16T04:52:32.833Z,22.70
2022-08-16T04:55:03.999Z,22.60
2022-08-16T04:57:30.806Z,22.60
2022-08-16T04:59:57.710Z,22.60
2022-08-16T05:02:41.427Z,22.60
2022-08-16T05:05:17.799Z,22.60
2022-08-16T05:07:59.732Z,22.60
2022-08-16T05:10:29.757Z,22.50
2022-08-16T05:12:58.146Z,22.50
2022-08-16T05:15:25.478Z,22.50
2022-08-16T05:17:58.853Z,22.40
2022-08-16T05:20:38.750Z,22.40
2022-08-16T05:23:17.706Z,22.40
2022-08-16T05:25:48.201Z,22.40
2022-08-16T05:28:17.462Z,22.40
2022-08-16T05:30:50.326Z,22.40
2022-08-16T05:33:18.316Z,22.50
2022-08-16T05:35:54.977Z,22.50
2022-08-16T05:38:33.222Z,22.60
2022-08-16T05:41:07.040Z,22.60
2022-08-16T05:43:46.485Z,22.70
2022-08-16T05:46:28.654Z,22.70
2022-08-16T05:49:06.567Z,22.70
2022-08-16T05:51:40.237Z,22.80
2022-08-16T05:54:11.663Z,22.80
2022-08-16T05:56:43.091Z,22.90
2022-08-16T05:59:10.803Z,22.90
2022-08-16T06:01:39.155Z,23.00
2022-08-16T06:04:13.691Z,23.10
2022-08-16T06:06:56.835Z,23.20
2022-08-16T06:09:25.970Z,23.30
2022-08-16T06:12:12.410Z,23.30
2022-08-16T06:14:40.006Z,23.40
2022-08-16T06:17:07.530Z,23.50
2022-08-16T06:19:35.658Z,23.60
2022-08-16T06:22:03.174Z,23.70
2022-08-16T06:24:53.843Z,23.70
2022-08-16T06:27:17.228Z,23.80
2022-08-16T06:29:44.748Z,23.90
2022-08-16T06:32:27.069Z,24.00
2022-08-16T06:35:02.424Z,24.20
2022-08-16T06:37:37.107Z,24.30
2022-08-16T06:40:12.556Z,24.50
2022-08-16T06:42:47.693Z,24.60
2022-08-16T06:45:18.378Z,24.70
2022-08-16T06:47:53.565Z,24.90
2022-08-16T06:53:09.309Z,25.30
2022-08-16T06:55:38.271Z,25.50
2022-08-16T06:58:08.490Z,25.70
2022-08-16T07:00:49.581Z,25.80
2022-08-16T07:03:27.483Z,25.90
2022-08-16T07:05:57.034Z,26.10
2022-08-16T07:08:25.201Z,26.30
2022-08-16T07:13:55.046Z,26.50
2022-08-16T07:16:15.508Z,26.70
2022-08-16T07:18:58.126Z,26.70
2022-08-16T07:21:28.668Z,26.90
2022-08-16T07:24:30.237Z,27.10
2022-08-16T07:29:31.733Z,27.50
2022-08-16T07:32:00.517Z,27.60
2022-08-16T07:34:34.806Z,27.80
2022-08-16T07:37:11.932Z,27.90
2022-08-16T07:39:43.493Z,28.10
2022-08-16T07:42:20.367Z,28.20
2022-08-16T07:44:55.868Z,28.30
2022-08-16T07:47:31.596Z,28.50
2022-08-16T07:52:29.945Z,28.70
2022-08-16T07:54:57.808Z,28.90
2022-08-16T07:57:25.009Z,29.00
2022-08-16T07:59:52.059Z,29.00
2022-08-16T08:02:20.328Z,29.20
2022-08-16T08:04:48.503Z,29.20
2022-08-16T08:07:16.501Z,29.40
2022-08-16T08:09:44.232Z,29.30
2022-08-16T08:15:01.085Z,29.60
2022-08-16T08:17:42.564Z,29.70
2022-08-16T08:20:20.644Z,29.80
2022-08-16T08:22:59.996Z,29.90
2022-08-16T08:25:52.111Z,30.00
2022-08-16T08:28:17.628Z,30.10
2022-08-16T08:30:50.610Z,30.00
2022-08-16T08:33:22.839Z,30.20
2022-08-16T08:35:50.059Z,30.30
2022-08-16T08:41:06.400Z,30.60
2022-08-16T08:43:41.554Z,30.60
2022-08-16T08:46:18.368Z,30.70
2022-08-16T08:49:02.014Z,30.70
2022-08-16T08:51:35.555Z,30.80
2022-08-16T08:54:06.764Z,30.90
2022-08-16T08:56:37.479Z,30.80
2022-08-16T08:59:13.418Z,30.90
2022-08-16T09:01:57.063Z,31.00
2022-08-16T09:04:28.423Z,31.20
2022-08-16T09:06:58.504Z,31.40
2022-08-16T09:09:33.777Z,31.60
2022-08-16T09:12:06.438Z,31.70
2022-08-16T09:14:35.531Z,31.80
2022-08-16T09:17:14.142Z,32.00
2022-08-16T09:19:53.773Z,32.00
2022-08-16T09:22:24.861Z,32.10
2022-08-16T09:24:54.053Z,32.00
2022-08-16T09:27:57.260Z,32.10
2022-08-16T09:30:34.105Z,32.30
2022-08-16T09:33:12.894Z,32.20
2022-08-16T09:35:43.781Z,32.30
2022-08-16T09:41:14.518Z,32.60
2022-08-16T09:44:00.251Z,32.50
2022-08-16T09:46:44.713Z,32.20
2022-08-16T09:49:13.652Z,32.30
2022-08-16T09:51:41.559Z,32.30
2022-08-16T09:54:16.791Z,32.30
2022-08-16T09:56:52.082Z,32.30
2022-08-16T09:59:23.023Z,32.20
2022-08-16T10:07:02.312Z,32.40
2022-08-16T10:15:09.940Z,32.60
2022-08-16T10:17:43.183Z,32.70
2022-08-16T10:20:18.846Z,32.60
2022-08-16T10:22:45.983Z,32.70
2022-08-16T10:26:59.261Z,32.60
2022-08-16T10:28:28.333Z,32.40
2022-08-16T10:30:48.867Z,32.50
2022-08-16T10:33:29.311Z,32.50
2022-08-16T10:36:02.592Z,32.60
2022-08-16T10:38:33.025Z,32.60
2022-08-16T10:41:01.004Z,32.60
2022-08-16T10:46:00.900Z,32.80
2022-08-16T10:48:29.374Z,32.90
2022-08-16T10:50:58.992Z,32.90
2022-08-16T10:53:32.920Z,32.90
2022-08-16T10:56:03.375Z,32.80
2022-08-16T10:58:34.697Z,32.80
2022-08-16T11:03:54.028Z,32.80
2022-08-16T11:06:26.913Z,32.70
2022-08-16T11:14:32.910Z,32.50
2022-08-16T11:17:10.553Z,32.50
2022-08-16T11:22:47.422Z,32.60
2022-08-16T11:26:07.652Z,32.70
2022-08-16T11:28:06.201Z,32.60
2022-08-16T11:30:38.825Z,32.60
2022-08-16T11:33:06.682Z,32.60
2022-08-16T11:38:46.286Z,32.60
2022-08-16T11:41:10.206Z,32.60
2022-08-16T11:43:39.136Z,32.50
2022-08-16T11:46:44.373Z,32.40
2022-08-16T11:48:57.087Z,32.40
2022-08-16T11:51:23.968Z,32.40
2022-08-16T11:53:51.753Z,32.40
2022-08-16T11:56:19.754Z,32.50
2022-08-16T11:58:57.165Z,32.60
2022-08-16T12:01:29.621Z,32.60
2022-08-16T12:04:13.385Z,32.60
2022-08-16T12:06:40.902Z,32.40
2022-08-16T12:09:07.862Z,32.40
2022-08-16T12:11:37.049Z,32.40
2022-08-16T12:14:06.004Z,32.40
2022-08-16T12:16:34.796Z,32.40
2022-08-16T12:19:06.987Z,32.30
2022-08-16T12:21:58.525Z,32.30
2022-08-16T12:24:27.087Z,32.30
2022-08-16T12:26:54.891Z,32.30
2022-08-16T12:29:25.802Z,32.40
2022-08-16T12:31:59.310Z,32.40
2022-08-16T12:34:29.631Z,32.40
2022-08-16T12:36:58.245Z,32.40
2022-08-16T12:39:28.860Z,32.40
2022-08-16T12:41:57.642Z,32.40
2022-08-16T12:44:25.243Z,32.30
2022-08-16T12:47:11.064Z,32.30
2022-08-16T12:49:42.427Z,32.20
2022-08-16T12:52:09.903Z,32.20
2022-08-16T12:54:57.814Z,32.70
2022-08-16T13:00:26.812Z,32.20
2022-08-16T13:03:02.201Z,32.10
2022-08-16T13:08:00.543Z,32.00
2022-08-16T13:10:37.195Z,32.00
2022-08-16T13:13:08.952Z,32.00
2022-08-16T13:15:55.891Z,32.00
2022-08-16T13:18:34.775Z,31.90
2022-08-16T13:21:05.450Z,32.00
2022-08-16T13:23:33.765Z,32.00
2022-08-16T13:26:04.918Z,31.90
2022-08-16T13:28:32.394Z,31.80
2022-08-16T13:31:00.177Z,31.80
2022-08-16T13:33:30.787Z,31.80
2022-08-16T13:36:01.437Z,31.70
2022-08-16T13:38:32.666Z,31.70
2022-08-16T13:41:08.493Z,32.00
2022-08-16T13:43:36.485Z,31.70
2022-08-16T13:46:04.611Z,31.70
2022-08-16T13:51:16.723Z,31.70
2022-08-16T13:53:49.517Z,31.80
2022-08-16T13:56:25.342Z,31.90
2022-08-16T13:58:54.795Z,31.90
2022-08-16T14:01:23.153Z,31.90
2022-08-16T14:03:50.502Z,31.80
2022-08-16T14:06:22.080Z,31.80
2022-08-16T14:08:50.420Z,32.00
2022-08-16T14:11:26.676Z,31.80
2022-08-16T14:13:56.219Z,31.80
2022-08-16T14:16:34.050Z,31.80
2022-08-16T14:19:02.526Z,31.70
2022-08-16T14:21:35.226Z,31.70
2022-08-16T14:24:07.932Z,31.50
2022-08-16T14:26:50.091Z,31.50
2022-08-16T14:31:43.857Z,31.50
2022-08-16T14:34:11.439Z,31.60
2022-08-16T14:36:42.071Z,31.50
2022-08-16T14:39:09.156Z,31.50
2022-08-16T14:41:36.892Z,31.50
2022-08-16T14:44:07.121Z,31.50
2022-08-16T14:46:36.156Z,31.50
2022-08-16T14:49:03.292Z,31.50
2022-08-16T14:51:30.182Z,31.50
2022-08-16T14:53:59.726Z,31.50
2022-08-16T14:56:38.551Z,31.80
2022-08-16T14:59:11.208Z,31.50
2022-08-16T15:01:57.592Z,31.60
2022-08-16T15:04:32.273Z,31.40
2022-08-16T15:07:06.869Z,31.40
2022-08-16T15:09:44.397Z,31.50
2022-08-16T15:12:31.231Z,31.60
2022-08-16T15:15:01.742Z,31.50
2022-08-16T15:17:33.802Z,31.70
2022-08-16T15:20:08.582Z,31.50
2022-08-16T15:22:39.480Z,31.50
2022-08-16T15:25:11.381Z,31.40
2022-08-16T15:27:42.364Z,31.40
2022-08-16T15:30:57.447Z,31.40
2022-08-16T15:33:04.031Z,31.40
2022-08-16T15:35:31.887Z,31.40
2022-08-16T15:38:01.205Z,31.40
2022-08-16T15:40:37.259Z,31.40
2022-08-16T15:43:23.962Z,31.40
2022-08-16T15:46:55.687Z,31.40
2022-08-16T15:49:06.657Z,31.40
2022-08-16T15:51:34.622Z,31.40
2022-08-16T15:54:29.265Z,31.40
2022-08-16T15:56:51.567Z,31.40
2022-08-16T15:59:19.561Z,31.40
2022-08-16T16:01:47.097Z,31.40
2022-08-16T16:04:15.096Z,31.30
2022-08-16T16:06:55.168Z,31.40
2022-08-16T16:09:36.685Z,31.30
2022-08-16T16:12:16.273Z,31.30
2022-08-16T16:14:52.558Z,31.30
2022-08-16T16:17:20.782Z,31.30
2022-08-16T16:19:49.619Z,31.30
2022-08-16T16:22:21.233Z,31.30
2022-08-16T16:24:49.303Z,31.30
2022-08-16T16:27:17.370Z,31.30
2022-08-16T16:29:46.220Z,31.30
2022-08-16T16:32:19.118Z,31.30
2022-08-16T16:35:01.177Z,31.30
2022-08-16T16:37:29.552Z,31.30
2022-08-16T16:39:58.207Z,31.30
2022-08-16T16:42:29.889Z,31.30
2022-08-16T16:45:01.618Z,31.30
2022-08-16T16:47:40.685Z,31.20
2022-08-16T16:50:10.187Z,31.30
2022-08-16T16:52:43.963Z,31.20
2022-08-16T16:55:14.814Z,31.30
2022-08-16T16:58:01.113Z,31.30
2022-08-16T17:00:38.099Z,31.30
2022-08-16T17:03:06.370Z,31.30
2022-08-16T17:05:54.248Z,31.30
2022-08-16T17:08:27.537Z,31.30
2022-08-16T17:10:56.110Z,31.30
2022-08-16T17:13:24.957Z,31.30
2022-08-16T17:15:54.002Z,31.30
2022-08-16T17:19:16.173Z,31.30
2022-08-16T17:21:11.443Z,31.20
2022-08-16T17:23:58.358Z,31.20
2022-08-16T17:26:30.234Z,31.20
2022-08-16T17:29:02.574Z,31.20
2022-08-16T17:31:40.929Z,31.20
2022-08-16T17:34:28.833Z,31.20
2022-08-16T17:36:58.828Z,31.20
2022-08-16T17:39:29.702Z,31.10
2022-08-16T17:41:58.899Z,31.10
2022-08-16T17:44:26.250Z,31.10
2022-08-16T17:46:53.414Z,31.10
2022-08-16T17:49:21.307Z,31.10
2022-08-16T17:51:48.861Z,31.10
2022-08-16T17:54:20.324Z,31.10
2022-08-16T17:57:00.470Z,31.00
2022-08-16T17:59:28.816Z,31.00
2022-08-16T18:01:56.339Z,31.00
2022-08-16T18:04:48.469Z,31.00
2022-08-16T18:07:11.461Z,31.00
2022-08-16T18:09:41.088Z,31.00
2022-08-16T18:12:44.685Z,30.90
2022-08-16T18:15:10.388Z,30.90
2022-08-16T18:17:42.218Z,30.90
2022-08-16T18:20:33.753Z,30.90
2022-08-16T18:23:17.640Z,30.90
2022-08-16T18:28:15.980Z,30.80
2022-08-16T18:30:47.932Z,30.80
2022-08-16T18:33:19.454Z,30.80
2022-08-16T18:35:46.421Z,30.80
2022-08-16T18:38:13.417Z,30.80
2022-08-16T18:40:40.657Z,30.80
2022-08-16T18:43:13.735Z,30.70
2022-08-16T18:45:43.012Z,30.70
2022-08-16T18:48:10.917Z,30.60
2022-08-16T18:50:59.650Z,30.60
2022-08-16T18:53:35.330Z,30.60
2022-08-16T18:56:03.220Z,30.70
2022-08-16T18:58:34.530Z,30.60
2022-08-16T19:01:01.638Z,30.50
2022-08-16T19:03:32.140Z,30.40
2022-08-16T19:06:07.622Z,30.40
2022-08-16T19:08:39.584Z,30.30
2022-08-16T19:11:08.226Z,30.20
2022-08-16T19:13:36.053Z,30.20
2022-08-16T19:16:05.435Z,30.10
2022-08-16T19:18:36.547Z,30.10
2022-08-16T19:21:05.452Z,30.00
2022-08-16T19:23:35.870Z,29.90
2022-08-16T19:26:10.200Z,29.90
2022-08-16T19:28:51.735Z,29.80
2022-08-16T19:31:31.991Z,29.80
2022-08-16T19:36:37.315Z,29.60
2022-08-16T19:39:08.939Z,29.60
2022-08-16T19:41:41.095Z,29.50
2022-08-16T19:44:09.213Z,29.40
2022-08-16T19:46:38.090Z,29.30
2022-08-16T19:49:05.529Z,29.20
2022-08-16T19:51:32.801Z,29.20
2022-08-16T19:53:59.989Z,29.10
2022-08-16T19:56:27.152Z,29.00
2022-08-16T20:01:43.946Z,28.90
2022-08-16T20:04:14.482Z,28.80
2022-08-16T20:06:42.445Z,28.80
2022-08-16T20:09:10.543Z,28.70
2022-08-16T20:11:42.920Z,28.60
2022-08-16T20:14:10.013Z,28.60
2022-08-16T20:16:36.951Z,28.50
2022-08-16T20:19:04.161Z,28.50
2022-08-16T20:21:31.308Z,28.40
2022-08-16T20:24:22.718Z,28.40
2022-08-16T20:26:45.619Z,28.30
2022-08-16T20:29:12.470Z,28.20
2022-08-16T20:31:39.390Z,28.20
2022-08-16T20:34:06.298Z,28.10
2022-08-16T20:36:33.331Z,28.10
2022-08-16T20:39:03.409Z,28.10
2022-08-16T20:41:33.043Z,28.00
2022-08-16T20:44:00.138Z,27.90
2022-08-16T20:49:48.985Z,27.90
2022-08-16T20:52:17.850Z,27.90
2022-08-16T20:54:45.961Z,27.80
2022-08-16T20:57:14.090Z,27.80
2022-08-16T20:59:41.294Z,27.80
2022-08-16T21:02:11.524Z,27.80
2022-08-16T21:04:38.330Z,27.80
2022-08-16T21:07:06.289Z,27.70
2022-08-16T21:09:35.918Z,27.70
2022-08-16T21:12:08.695Z,27.70
2022-08-16T21:14:38.423Z,27.60
2022-08-16T21:17:07.041Z,27.60
2022-08-16T21:19:34.618Z,27.60
2022-08-16T21:22:18.809Z,27.60
2022-08-16T21:24:46.698Z,27.50
2022-08-16T21:27:14.727Z,27.50
2022-08-16T21:29:46.068Z,27.40
2022-08-16T21:32:34.896Z,27.30
2022-08-16T21:35:07.962Z,27.30
2022-08-16T21:37:34.988Z,27.20
2022-08-16T21:40:02.066Z,27.20
2022-08-16T21:42:33.010Z,27.10
2022-08-16T21:45:02.564Z,27.10
2022-08-16T21:47:29.349Z,27.10
2022-08-16T21:49:56.150Z,27.00
2022-08-16T21:52:26.600Z,27.00
2022-08-16T21:54:56.611Z,26.90
2022-08-16T21:57:24.073Z,26.90
2022-08-16T21:59:52.087Z,26.80
2022-08-16T22:02:21.813Z,26.80
2022-08-16T22:04:50.176Z,26.70
2022-08-16T22:07:18.182Z,26.60
2022-08-16T22:09:47.164Z,26.50
2022-08-16T22:12:24.126Z,26.40
2022-08-16T22:14:51.003Z,26.30
2022-08-16T22:17:17.902Z,26.20
2022-08-16T22:19:45.344Z,26.10
2022-08-16T22:22:12.476Z,26.10
2022-08-16T22:24:39.340Z,26.10
2022-08-16T22:27:06.364Z,26.10
2022-08-16T22:29:33.153Z,26.10
2022-08-16T22:32:03.336Z,26.00
2022-08-16T22:34:31.551Z,26.00
2022-08-16T22:36:58.457Z,26.00
2022-08-16T22:39:25.396Z,26.00
2022-08-16T22:41:52.633Z,26.00
2022-08-16T22:44:19.456Z,25.90
2022-08-16T22:46:46.424Z,26.00
2022-08-16T22:49:13.254Z,25.90
2022-08-16T22:51:40.484Z,25.90
2022-08-16T22:54:34.335Z,25.90
2022-08-16T22:56:54.965Z,25.80
2022-08-16T22:59:21.701Z,25.80
2022-08-16T23:01:48.503Z,25.80
2022-08-16T23:04:15.325Z,25.70
2022-08-16T23:06:42.113Z,25.60
2022-08-16T23:09:09.139Z,25.60
2022-08-16T23:11:35.960Z,25.50
2022-08-16T23:14:03.102Z,25.40
2022-08-16T23:16:33.134Z,25.30
2022-08-16T23:19:09.385Z,25.10
2022-08-16T23:21:38.078Z,25.00
2022-08-16T23:24:06.474Z,25.00
2022-08-16T23:26:45.254Z,25.00
2022-08-16T23:29:23.928Z,25.00
2022-08-16T23:31:59.048Z,25.00
2022-08-16T23:34:27.306Z,25.00
2022-08-16T23:36:54.884Z,25.00
2022-08-16T23:39:22.254Z,25.00
2022-08-16T23:41:49.073Z,25.00
2022-08-16T23:44:55.974Z,24.90
2022-08-16T23:47:02.668Z,24.90
2022-08-16T23:49:56.290Z,24.90
2022-08-16T23:52:18.032Z,24.90
2022-08-16T23:54:44.778Z,24.90
2022-08-16T23:57:11.982Z,24.80
2022-08-16T23:59:53.491Z,24.80
